Queen Isabella — A8IE2 — position and weather

sailwx.info

Track history (hours):
 
Tides and Currents Weather Stations Pressure Air Temp Water Temp Dewpoint Dewpoint Depression Visibility Wind Speed Wind Dir Waves Ship Positions

Queen Isabella

Last reported at 2016-Feb-10 04:32 UTC. Time now 2016-Feb-11 02:23 UTC.
Position N 36°15' W 008°01'.

Length 131 m; draft 5.8 m.

Type: Ship. MMSI: 636090959.

Date/timePositionNaut miles runAvg speedWind from/ knotsBaromVisibWave heightAir tempDewpointWater temp
2016-Feb-10 04:32N 36°15' W 008°01'1613.4
2016-Feb-10 03:20N 36°19' W 008°21'1113.4
2016-Feb-10 02:32N 36°21' W 008°34'1312.7
2016-Feb-10 01:29N 36°24' W 008°50'1212.7
2016-Feb-10 00:32N 36°27' W 009°04'1413.8
2016-Feb-09 23:32N 36°31' W 009°21'1413.7
2016-Feb-09 22:32N 36°41' W 009°33'1612.0
2016-Feb-09 21:14N 36°55' W 009°40'913.3
2016-Feb-09 20:32N 37°04' W 009°39'1313.4
2016-Feb-09 19:32N 37°18' W 009°38'2612.8
2016-Feb-09 17:32N 37°43' W 009°34'1313.1
2016-Feb-09 16:32N 37°56' W 009°31'1312.7
2016-Feb-09 15:33N 38°08' W 009°29'1312.7
2016-Feb-09 14:33N 38°21' W 009°27'1212.5
2016-Feb-09 13:33N 38°33' W 009°25'1010.3
2016-Feb-09 12:32N 38°41' W 009°16'8 8.4
2016-Feb-09 11:34N 38°41' W 009°06'2 1.7
2016-Feb-09 10:33N 38°41' W 009°04'0 0.0
2016-Feb-09 09:33N 38°41' W 009°04'0 0.0
2016-Feb-09 08:33N 38°41' W 009°04'0 0.0
2016-Feb-09 07:33N 38°41' W 009°04'0 0.0
2016-Feb-09 06:33N 38°41' W 009°04'0 0.0
2016-Feb-09 05:33N 38°41' W 009°04'0 0.0
2016-Feb-09 04:33N 38°41' W 009°04'0 0.0
2016-Feb-09 03:33N 38°41' W 009°04'0 0.0
2016-Feb-09 02:33N 38°41' W 009°04'0 0.0
2016-Feb-09 01:33N 38°41' W 009°04'0 0.0
2016-Feb-09 00:33N 38°41' W 009°04'0 0.0
2016-Feb-08 23:33N 38°41' W 009°04'0 0.0
2016-Feb-08 22:33N 38°41' W 009°04'0 0.0
2016-Feb-08 21:33N 38°41' W 009°04'0 0.0
2016-Feb-08 20:33N 38°41' W 009°04'0 0.0
2016-Feb-08 19:33N 38°41' W 009°04'0 0.0
2016-Feb-08 18:33N 38°41' W 009°04'0 0.0
2016-Feb-08 17:33N 38°41' W 009°04'0 0.0
2016-Feb-08 16:33N 38°41' W 009°04'0 0.0
2016-Feb-08 15:33N 38°41' W 009°04'0 0.0
2016-Feb-08 14:33N 38°41' W 009°04'5 5.2
2016-Feb-08 13:33N 38°41' W 009°10'1110.7
2016-Feb-08 12:33N 38°39' W 009°24'2 1.4
2016-Feb-08 11:23N 38°41' W 009°23'0 0.0
2016-Feb-08 10:33N 38°41' W 009°23'0 0.0
2016-Feb-08 09:32N 38°41' W 009°23'0 0.0
2016-Feb-08 08:32N 38°41' W 009°23'0 0.0
2016-Feb-08 07:32N 38°41' W 009°23'0 0.0
2016-Feb-08 06:32N 38°41' W 009°23'0 0.0
2016-Feb-08 05:32N 38°41' W 009°23'0 0.0
2016-Feb-08 04:32N 38°41' W 009°23'0 0.0
2016-Feb-08 03:29N 38°41' W 009°23'0 0.0
2016-Feb-08 02:32N 38°41' W 009°23'0 0.0
2016-Feb-08 01:32N 38°41' W 009°23'0 0.0
2016-Feb-08 00:32N 38°41' W 009°23'0 0.0
2016-Feb-07 23:32N 38°41' W 009°23'0 0.0
2016-Feb-07 22:32N 38°41' W 009°23'0 0.0
2016-Feb-07 21:29N 38°41' W 009°23'0 0.0
2016-Feb-07 20:32N 38°41' W 009°23'0 0.0
2016-Feb-07 19:23N 38°41' W 009°23'0 0.0
2016-Feb-07 18:32N 38°41' W 009°23'0 0.0
2016-Feb-07 17:32N 38°41' W 009°23'0 0.0
2016-Feb-07 16:32N 38°41' W 009°23'0 0.0
2016-Feb-07 15:32N 38°41' W 009°23'0 0.0
2016-Feb-07 14:32N 38°41' W 009°23'0 0.0
2016-Feb-07 13:20N 38°41' W 009°23'0 0.0
2016-Feb-07 12:32N 38°41' W 009°23'0 0.0
2016-Feb-07 11:32N 38°41' W 009°23'0 0.0
2016-Feb-07 10:32N 38°41' W 009°23'1 1.4
2016-Feb-07 09:33N 38°39' W 009°24'1212.1
2016-Feb-07 08:33N 38°27' W 009°25'1211.9
2016-Feb-07 07:33N 38°15' W 009°25'1212.2
2016-Feb-07 06:33N 38°03' W 009°25'1211.9
2016-Feb-07 05:33N 37°51' W 009°25'1211.8
2016-Feb-07 04:33N 37°39' W 009°25'1312.7
2016-Feb-07 03:32N 37°27' W 009°26'1312.6
2016-Feb-07 02:32N 37°14' W 009°26'1812.2
2016-Feb-07 01:05N 36°56' W 009°25'611.2
2016-Feb-07 00:32N 36°51' W 009°23'1313.3
2016-Feb-06 23:32N 36°41' W 009°12'1313.0
2016-Feb-06 22:32N 36°39' W 008°55'1313.3
2016-Feb-06 21:32N 36°42' W 008°39'1312.8
2016-Feb-06 20:29N 36°44' W 008°23'1212.3
2016-Feb-06 19:33N 36°46' W 008°09'7 6.8
2016-Feb-06 18:32N 36°47' W 008°00'1010.2
2016-Feb-06 17:33N 36°49' W 007°48'  
2016-Feb-02 00:06N 37°05' W 006°53'89 3.8
2016-Feb-01 00:31N 35°58' W 005°39'8 8.2
2016-Jan-31 23:33N 35°60' W 005°30'8 7.7
2016-Jan-31 22:33N 36°01' W 005°20'8 8.4
2016-Jan-31 21:33N 36°02' W 005°10'  
Track history (hours):
 
Tides and Currents Weather Stations Pressure Air Temp Water Temp Dewpoint Dewpoint Depression Visibility Wind Speed Wind Dir Waves Ship Positions

Queen Isabella

Last reported at 2016-Feb-10 04:32 UTC. Time now 2016-Feb-11 02:23 UTC.
Position N 36°15' W 008°01'.

Length 131 m; draft 5.8 m.

Type: Ship. MMSI: 636090959.

Date/timePositionNaut miles runAvg speedWind from/ knotsBaromVisibWave heightAir tempDewpointWater temp
2016-Feb-10 04:32N 36°15' W 008°01'1613.4
2016-Feb-10 03:20N 36°19' W 008°21'1113.4
2016-Feb-10 02:32N 36°21' W 008°34'1312.7
2016-Feb-10 01:29N 36°24' W 008°50'1212.7
2016-Feb-10 00:32N 36°27' W 009°04'1413.8
2016-Feb-09 23:32N 36°31' W 009°21'1413.7
2016-Feb-09 22:32N 36°41' W 009°33'1612.0
2016-Feb-09 21:14N 36°55' W 009°40'913.3
2016-Feb-09 20:32N 37°04' W 009°39'1313.4
2016-Feb-09 19:32N 37°18' W 009°38'2612.8
2016-Feb-09 17:32N 37°43' W 009°34'1313.1
2016-Feb-09 16:32N 37°56' W 009°31'1312.7
2016-Feb-09 15:33N 38°08' W 009°29'1312.7
2016-Feb-09 14:33N 38°21' W 009°27'1212.5
2016-Feb-09 13:33N 38°33' W 009°25'1010.3
2016-Feb-09 12:32N 38°41' W 009°16'8 8.4
2016-Feb-09 11:34N 38°41' W 009°06'2 1.7
2016-Feb-09 10:33N 38°41' W 009°04'0 0.0
2016-Feb-09 09:33N 38°41' W 009°04'0 0.0
2016-Feb-09 08:33N 38°41' W 009°04'0 0.0
2016-Feb-09 07:33N 38°41' W 009°04'0 0.0
2016-Feb-09 06:33N 38°41' W 009°04'0 0.0
2016-Feb-09 05:33N 38°41' W 009°04'0 0.0
2016-Feb-09 04:33N 38°41' W 009°04'0 0.0
2016-Feb-09 03:33N 38°41' W 009°04'0 0.0
2016-Feb-09 02:33N 38°41' W 009°04'0 0.0
2016-Feb-09 01:33N 38°41' W 009°04'0 0.0
2016-Feb-09 00:33N 38°41' W 009°04'0 0.0
2016-Feb-08 23:33N 38°41' W 009°04'0 0.0
2016-Feb-08 22:33N 38°41' W 009°04'0 0.0
2016-Feb-08 21:33N 38°41' W 009°04'0 0.0
2016-Feb-08 20:33N 38°41' W 009°04'0 0.0
2016-Feb-08 19:33N 38°41' W 009°04'0 0.0
2016-Feb-08 18:33N 38°41' W 009°04'0 0.0
2016-Feb-08 17:33N 38°41' W 009°04'0 0.0
2016-Feb-08 16:33N 38°41' W 009°04'0 0.0
2016-Feb-08 15:33N 38°41' W 009°04'0 0.0
2016-Feb-08 14:33N 38°41' W 009°04'5 5.2
2016-Feb-08 13:33N 38°41' W 009°10'1110.7
2016-Feb-08 12:33N 38°39' W 009°24'2 1.4
2016-Feb-08 11:23N 38°41' W 009°23'0 0.0
2016-Feb-08 10:33N 38°41' W 009°23'0 0.0
2016-Feb-08 09:32N 38°41' W 009°23'0 0.0
2016-Feb-08 08:32N 38°41' W 009°23'0 0.0
2016-Feb-08 07:32N 38°41' W 009°23'0 0.0
2016-Feb-08 06:32N 38°41' W 009°23'0 0.0
2016-Feb-08 05:32N 38°41' W 009°23'0 0.0
2016-Feb-08 04:32N 38°41' W 009°23'0 0.0
2016-Feb-08 03:29N 38°41' W 009°23'0 0.0
2016-Feb-08 02:32N 38°41' W 009°23'0 0.0
2016-Feb-08 01:32N 38°41' W 009°23'0 0.0
2016-Feb-08 00:32N 38°41' W 009°23'0 0.0
2016-Feb-07 23:32N 38°41' W 009°23'0 0.0
2016-Feb-07 22:32N 38°41' W 009°23'0 0.0
2016-Feb-07 21:29N 38°41' W 009°23'0 0.0
2016-Feb-07 20:32N 38°41' W 009°23'0 0.0
2016-Feb-07 19:23N 38°41' W 009°23'0 0.0
2016-Feb-07 18:32N 38°41' W 009°23'0 0.0
2016-Feb-07 17:32N 38°41' W 009°23'0 0.0
2016-Feb-07 16:32N 38°41' W 009°23'0 0.0
2016-Feb-07 15:32N 38°41' W 009°23'0 0.0
2016-Feb-07 14:32N 38°41' W 009°23'0 0.0
2016-Feb-07 13:20N 38°41' W 009°23'0 0.0
2016-Feb-07 12:32N 38°41' W 009°23'0 0.0
2016-Feb-07 11:32N 38°41' W 009°23'0 0.0
2016-Feb-07 10:32N 38°41' W 009°23'1 1.4
2016-Feb-07 09:33N 38°39' W 009°24'1212.1
2016-Feb-07 08:33N 38°27' W 009°25'1211.9
2016-Feb-07 07:33N 38°15' W 009°25'1212.2
2016-Feb-07 06:33N 38°03' W 009°25'1211.9
2016-Feb-07 05:33N 37°51' W 009°25'1211.8
2016-Feb-07 04:33N 37°39' W 009°25'1312.7
2016-Feb-07 03:32N 37°27' W 009°26'1312.6
2016-Feb-07 02:32N 37°14' W 009°26'1812.2
2016-Feb-07 01:05N 36°56' W 009°25'611.2
2016-Feb-07 00:32N 36°51' W 009°23'1313.3
2016-Feb-06 23:32N 36°41' W 009°12'1313.0
2016-Feb-06 22:32N 36°39' W 008°55'1313.3
2016-Feb-06 21:32N 36°42' W 008°39'1312.8
2016-Feb-06 20:29N 36°44' W 008°23'1212.3
2016-Feb-06 19:33N 36°46' W 008°09'7 6.8
2016-Feb-06 18:32N 36°47' W 008°00'1010.2
2016-Feb-06 17:33N 36°49' W 007°48'  
2016-Feb-02 00:06N 37°05' W 006°53'89 3.8
2016-Feb-01 00:31N 35°58' W 005°39'8 8.2
2016-Jan-31 23:33N 35°60' W 005°30'8 7.7
2016-Jan-31 22:33N 36°01' W 005°20'8 8.4
2016-Jan-31 21:33N 36°02' W 005°10'  

Dump ship's entire track history